| time (UTC) | temp F | wind direction | speed knots | gust knots | rain 1hr in | rain 24hr in | rain mn in | humidity % | barometer mb |
| 20260507201519 | 69 | 207 | 3.5 | 5.2 | 0.00 | 0.00 | 0.00 | 41 | 1010.4 |
| 20260507201016 | 69 | 5 | 2.6 | 7.0 | 0.00 | 0.00 | 0.00 | 39 | 1010.2 |
| 20260507200511 | 68 | 247 | 3.5 | 5.2 | 0.00 | 0.00 | 0.00 | 41 | 1010.2 |
| 20260507200008 | 69 | 209 | 1.7 | 5.2 | 0.00 | 0.00 | 0.00 | 40 | 1010.4 |
| 20260507195505 | 67 | 43 | 1.7 | 3.5 | 0.00 | 0.00 | 0.00 | 43 | 1010.4 |
| 20260507195003 | 68 | 17 | 2.6 | 5.2 | 0.00 | 0.00 | 0.00 | 42 | 1010.6 |
| 20260507194458 | 68 | 214 | 4.3 | 8.7 | 0.00 | 0.00 | 0.00 | 39 | 1010.4 |
| 20260507193954 | 68 | 41 | 1.7 | 7.0 | 0.00 | 0.00 | 0.00 | 40 | 1010.7 |
| 20260507193452 | 66 | 32 | 3.5 | 6.1 | 0.00 | 0.00 | 0.00 | 41 | 1010.6 |
| 20260507192948 | 67 | 69 | 1.7 | 3.5 | 0.00 | 0.00 | 0.00 | 41 | 1010.8 |
| 20260507192444 | 67 | 63 | 3.5 | 7.0 | 0.00 | 0.00 | 0.00 | 43 | 1010.8 |
| 20260507191942 | 67 | 50 | 1.7 | 7.0 | 0.00 | 0.00 | 0.00 | 44 | 1010.7 |
| 20260507191437 | 67 | 89 | 3.5 | 7.0 | 0.00 | 0.00 | 0.00 | 43 | 1010.9 |
| 20260507190934 | 66 | 76 | 1.7 | 3.5 | 0.00 | 0.00 | 0.00 | 43 | 1011.0 |
| 20260507190432 | 66 | 51 | 1.7 | 5.2 | 0.00 | 0.00 | 0.00 | 42 | 1010.9 |
| 20260507185931 | 68 | 17 | 1.7 | 3.5 | 0.00 | 0.00 | 0.00 | 42 | 1010.9 |
| 20260507185428 | 67 | 310 | 1.7 | 7.0 | 0.00 | 0.00 | 0.00 | 43 | 1011.0 |
| 20260507184924 | 66 | 255 | 2.6 | 5.2 | 0.00 | 0.00 | 0.00 | 42 | 1011.1 |
| 20260507184422 | 68 | 22 | 3.5 | 6.1 | 0.00 | 0.00 | 0.00 | 41 | 1011.1 |
| 20260507183920 | 67 | 56 | 1.7 | 5.2 | 0.00 | 0.00 | 0.00 | 45 | 1011.0 |
| 20260507183416 | 68 | 59 | 3.5 | 6.1 | 0.00 | 0.00 | 0.00 | 41 | 1011.1 |
| 20260507182914 | 67 | 223 | 1.7 | 2.6 | 0.00 | 0.00 | 0.00 | 45 | 1011.3 |
| 20260507182409 | 67 | 62 | 4.3 | 7.0 | 0.00 | 0.00 | 0.00 | 44 | 1011.3 |
| 20260507181906 | 66 | 61 | 3.5 | 3.5 | 0.00 | 0.00 | 0.00 | 44 | 1011.3 |
| 20260507181402 | 65 | 60 | 3.5 | 5.2 | 0.00 | 0.00 | 0.00 | 44 | 1011.4 |
| 20260507180859 | 65 | 28 | 4.3 | 7.8 | 0.00 | 0.00 | 0.00 | 45 | 1011.5 |
| 20260507180355 | 66 | 50 | 1.7 | 3.5 | 0.00 | 0.00 | 0.00 | 47 | 1011.6 |
| 20260507175852 | 66 | 56 | 3.5 | 7.0 | 0.00 | 0.00 | 0.00 | 45 | 1011.8 |
| 20260507175348 | 67 | 51 | 1.7 | 6.1 | 0.00 | 0.00 | 0.00 | 44 | 1011.6 |
| 20260507174846 | 65 | 35 | 0.9 | 3.5 | 0.00 | 0.00 | 0.00 | 48 | 1011.7 |
| 20260507174343 | 65 | 336 | 4.3 | 8.7 | 0.00 | 0.00 | 0.00 | 46 | 1012.0 |
| 20260507173841 | 66 | 150 | 3.5 | 7.8 | 0.00 | 0.00 | 0.00 | 47 | 1012.1 |
| 20260507173338 | 65 | 338 | 3.5 | 7.0 | 0.00 | 0.00 | 0.00 | 46 | 1011.9 |
| 20260507172833 | 64 | 328 | 4.3 | 13.0 | 0.00 | 0.00 | 0.00 | 48 | 1012.1 |
| 20260507172331 | 64 | 50 | 2.6 | 5.2 | 0.00 | 0.00 | 0.00 | 48 | 1012.1 |
| 20260507171827 | 64 | 316 | 5.2 | 9.6 | 0.00 | 0.00 | 0.00 | 50 | 1012.3 |
| 20260507171324 | 64 | 57 | 3.5 | 6.1 | 0.00 | 0.00 | 0.00 | 48 | 1012.4 |
| 20260507170821 | 64 | 63 | 1.7 | 11.3 | 0.00 | 0.00 | 0.00 | 48 | 1012.6 |
| 20260507170317 | 64 | 97 | 3.5 | 7.8 | 0.00 | 0.00 | 0.00 | 50 | 1012.6 |
| 20260507165813 | 64 | 73 | 1.7 | 6.1 | 0.00 | 0.00 | 0.00 | 48 | 1012.5 |
| 20260507165309 | 64 | 35 | 3.5 | 6.1 | 0.00 | 0.00 | 0.00 | 51 | 1012.7 |
| 20260507164805 | 64 | 329 | 2.6 | 6.1 | 0.00 | 0.00 | 0.00 | 52 | 1012.8 |
| 20260507164303 | 64 | 346 | 7.8 | 8.7 | 0.00 | 0.00 | 0.00 | 52 | 1012.8 |
| 20260507163759 | 64 | 66 | 1.7 | 6.1 | 0.00 | 0.00 | 0.00 | 54 | 1012.9 |
| 20260507163257 | 63 | 11 | 3.5 | 7.8 | 0.00 | 0.00 | 0.00 | 51 | 1012.8 |
| 20260507162753 | 63 | 59 | 1.7 | 3.5 | 0.00 | 0.00 | 0.00 | 52 | 1012.8 |
| 20260507162249 | 63 | 47 | 1.7 | 5.2 | 0.00 | 0.00 | 0.00 | 53 | 1012.8 |
| 20260507161747 | 63 | 23 | 3.5 | 6.1 | 0.00 | 0.00 | 0.00 | 51 | 1013.0 |
| 20260507161243 | 63 | 62 | 2.6 | 6.1 | 0.00 | 0.00 | 0.00 | 53 | 1012.9 |
| 20260507160738 | 62 | 18 | 1.7 | 12.2 | 0.00 | 0.00 | 0.00 | 52 | 1013.0 |
| 20260507160235 | 62 | 61 | 0.9 | 5.2 | 0.00 | 0.00 | 0.00 | 54 | 1013.0 |
| 20260507155731 | 62 | 300 | 2.6 | 6.1 | 0.00 | 0.00 | 0.00 | 54 | 1012.9 |
| 20260507155227 | 62 | 72 | 2.6 | 7.0 | 0.00 | 0.00 | 0.00 | 55 | 1012.9 |
| 20260507154724 | 61 | 57 | 1.7 | 5.2 | 0.00 | 0.00 | 0.00 | 56 | 1013.0 |
| 20260507154222 | 61 | 90 | 2.6 | 7.0 | 0.00 | 0.00 | 0.00 | 53 | 1013.0 |
| 20260507153718 | 60 | 40 | 1.7 | 6.1 | 0.00 | 0.00 | 0.00 | 58 | 1013.2 |
| 20260507153215 | 60 | 64 | 0.9 | 7.0 | 0.00 | 0.00 | 0.00 | 59 | 1013.2 |
| 20260507152711 | 59 | 80 | 1.7 | 3.5 | 0.00 | 0.00 | 0.00 | 59 | 1013.1 |
| 20260507152207 | 59 | 276 | 5.2 | 7.8 | 0.00 | 0.00 | 0.00 | 59 | 1012.9 |
| 20260507151703 | 59 | 74 | 3.5 | 5.2 | 0.00 | 0.00 | 0.00 | 58 | 1013.1 |
| 20260507151200 | 59 | 84 | 2.6 | 3.5 | 0.00 | 0.00 | 0.00 | 58 | 1013.1 |
| 20260507150657 | 59 | 120 | 1.7 | 2.6 | 0.00 | 0.00 | 0.00 | 60 | 1013.3 |
| 20260507150154 | 59 | 66 | 1.7 | 5.2 | 0.00 | 0.00 | 0.00 | 60 | 1013.2 |
| 20260507145649 | 59 | 56 | 1.7 | 7.0 | 0.00 | 0.00 | 0.00 | 59 | 1013.3 |
| 20260507145147 | 58 | 61 | 1.7 | 5.2 | 0.00 | 0.00 | 0.00 | 60 | 1013.4 |
| 20260507144643 | 58 | 21 | 3.5 | 7.0 | 0.00 | 0.00 | 0.00 | 61 | 1013.3 |
| 20260507144142 | 57 | 52 | 0.9 | 3.5 | 0.00 | 0.00 | 0.00 | 62 | 1013.4 |
| 20260507143638 | 57 | 276 | 2.6 | 6.1 | 0.00 | 0.00 | 0.00 | 61 | 1013.4 |
| 20260507143135 | 57 | 47 | 3.5 | 5.2 | 0.00 | 0.00 | 0.00 | 63 | 1013.4 |
| 20260507142630 | 57 | 74 | 1.7 | 3.5 | 0.00 | 0.00 | 0.00 | 64 | 1013.5 |
| 20260507142127 | 56 | 69 | 1.7 | 7.0 | 0.00 | 0.00 | 0.00 | 65 | 1013.5 |
| 20260507141623 | 55 | 138 | 1.7 | 5.2 | 0.00 | 0.00 | 0.00 | 65 | 1013.5 |
| 20260507141121 | 55 | 70 | 1.7 | 3.5 | 0.00 | 0.00 | 0.00 | 65 | 1013.5 |
| 20260507140617 | 55 | 68 | 1.7 | 3.5 | 0.00 | 0.00 | 0.00 | 65 | 1013.5 |
| 20260507140114 | 55 | 321 | 0.9 | 5.2 | 0.00 | 0.00 | 0.00 | 65 | 1013.8 |
| 20260507135611 | 54 | 59 | 1.7 | 5.2 | 0.00 | 0.00 | 0.00 | 66 | 1013.7 |
| 20260507135109 | 54 | 52 | 1.7 | 6.1 | 0.00 | 0.00 | 0.00 | 66 | 1013.7 |
| 20260507134605 | 54 | 149 | 1.7 | 3.5 | 0.00 | 0.00 | 0.00 | 67 | 1013.8 |
| 20260507134101 | 53 | 79 | 1.7 | 3.5 | 0.00 | 0.00 | 0.00 | 67 | 1013.8 |
| 20260507133557 | 53 | 66 | 0.9 | 3.5 | 0.00 | 0.00 | 0.00 | 66 | 1013.7 |
| 20260507133055 | 53 | 111 | 1.7 | 3.5 | 0.00 | 0.00 | 0.00 | 67 | 1013.8 |
| 20260507132552 | 52 | 57 | 1.7 | 3.5 | 0.00 | 0.00 | 0.00 | 67 | 1013.7 |
| 20260507132048 | 51 | 13 | 1.7 | 3.5 | 0.00 | 0.00 | 0.00 | 68 | 1013.8 |
| 20260507131545 | 51 | 69 | 1.7 | 5.2 | 0.00 | 0.00 | 0.00 | 68 | 1014.0 |
| 20260507131042 | 51 | 357 | 2.6 | 5.2 | 0.00 | 0.00 | 0.00 | 67 | 1013.9 |
| 20260507130539 | 50 | 66 | 1.7 | 5.2 | 0.00 | 0.00 | 0.00 | 68 | 1014.0 |
| 20260507130037 | 50 | 80 | 2.6 | 3.5 | 0.00 | 0.00 | 0.00 | 67 | 1014.0 |
| 20260507125535 | 50 | 74 | 1.7 | 2.6 | 0.00 | 0.00 | 0.00 | 68 | 1013.9 |
| 20260507125032 | 49 | 159 | 1.7 | 2.6 | 0.00 | 0.00 | 0.00 | 68 | 1013.9 |
| 20260507124529 | 49 | 100 | 0.9 | 3.5 | 0.00 | 0.00 | 0.00 | 69 | 1013.8 |
| 20260507124027 | 48 | 123 | 0.9 | 2.6 | 0.00 | 0.00 | 0.00 | 68 | 1013.9 |
| 20260507123525 | 48 | 88 | 1.7 | 1.7 | 0.00 | 0.00 | 0.00 | 69 | 1014.0 |
| 20260507123021 | 47 | 85 | 1.7 | 2.6 | 0.00 | 0.00 | 0.00 | 68 | 1013.8 |
| 20260507122516 | 47 | 94 | 1.7 | 5.2 | 0.00 | 0.00 | 0.00 | 69 | 1013.9 |
| 20260507122012 | 46 | 108 | 1.7 | 3.5 | 0.00 | 0.00 | 0.00 | 69 | 1013.9 |
| 20260507121508 | 46 | 121 | 2.6 | 3.5 | 0.00 | 0.00 | 0.00 | 69 | 1013.5 |
| 20260507121004 | 46 | 124 | 0.0 | 3.5 | 0.00 | 0.00 | 0.00 | 70 | 1013.8 |
| 20260507120500 | 45 | 132 | 1.7 | 2.6 | 0.00 | 0.00 | 0.00 | 70 | 1013.8 |
| 20260507115957 | 45 | 138 | 1.7 | 5.2 | 0.00 | 0.00 | 0.00 | 71 | 1013.9 |
| 20260507115454 | 44 | 144 | 0.9 | 2.6 | 0.00 | 0.00 | 0.00 | 70 | 1013.8 |
| 20260507114949 | 44 | 147 | 0.9 | 3.5 | 0.00 | 0.00 | 0.00 | 71 | 1013.8 |
| 20260507114446 | 44 | 150 | 1.7 | 2.6 | 0.00 | 0.00 | 0.00 | 71 | 1013.8 |
| 20260507113943 | 44 | 152 | 0.9 | 1.7 | 0.00 | 0.00 | 0.00 | 71 | 1013.9 |
| 20260507113440 | 43 | 154 | 1.7 | 2.6 | 0.00 | 0.00 | 0.00 | 71 | 1013.8 |
| 20260507112938 | 43 | 156 | 0.9 | 2.6 | 0.00 | 0.00 | 0.00 | 72 | 1013.7 |
| 20260507112435 | 42 | 157 | 0.9 | 1.7 | 0.00 | 0.00 | 0.00 | 72 | 1013.7 |
| 20260507111932 | 42 | 162 | 1.7 | 2.6 | 0.00 | 0.00 | 0.00 | 72 | 1013.7 |
| 20260507111429 | 42 | 163 | 0.9 | 2.6 | 0.00 | 0.00 | 0.00 | 72 | 1013.7 |
| 20260507110925 | 42 | 166 | 2.6 | 3.5 | 0.00 | 0.00 | 0.00 | 72 | 1013.5 |
| 20260507110421 | 42 | 166 | 0.9 | 1.7 | 0.00 | 0.00 | 0.00 | 72 | 1013.6 |
| 20260507105918 | 42 | 168 | 1.7 | 2.6 | 0.00 | 0.00 | 0.00 | 71 | 1013.8 |
| 20260507105415 | 42 | 171 | 1.7 | 2.6 | 0.00 | 0.00 | 0.00 | 71 | 1013.6 |
| 20260507104912 | 42 | 170 | 0.9 | 2.6 | 0.00 | 0.00 | 0.00 | 71 | 1013.5 |
| 20260507104409 | 42 | 171 | 0.0 | 1.7 | 0.00 | 0.00 | 0.00 | 71 | 1014.0 |
| 20260507103904 | 42 | 172 | 1.7 | 3.5 | 0.00 | 0.00 | 0.00 | 71 | 1013.9 |
| 20260507103402 | 42 | 175 | 0.9 | 2.6 | 0.00 | 0.00 | 0.00 | 71 | 1013.9 |
| 20260507102857 | 41 | 175 | 0.0 | 0.9 | 0.00 | 0.00 | 0.00 | 71 | 1013.8 |
| 20260507102354 | 42 | 175 | 1.7 | 1.7 | 0.00 | 0.00 | 0.00 | 70 | 1013.8 |
| 20260507101851 | 42 | 172 | 0.9 | 1.7 | 0.00 | 0.00 | 0.00 | 69 | 1013.8 |
| 20260507101350 | 42 | 176 | 1.7 | 1.7 | 0.00 | 0.00 | 0.00 | 68 | 1013.7 |
| 20260507100848 | 42 | 177 | 0.9 | 3.5 | 0.00 | 0.00 | 0.00 | 68 | 1013.8 |
| 20260507100346 | 42 | 178 | 1.7 | 2.6 | 0.00 | 0.00 | 0.00 | 67 | 1013.8 |
| 20260507095844 | 42 | 179 | 0.9 | 3.5 | 0.00 | 0.00 | 0.00 | 68 | 1013.8 |
| 20260507095340 | 42 | 179 | 0.0 | 1.7 | 0.00 | 0.00 | 0.00 | 68 | 1014.3 |
| 20260507094837 | 42 | 180 | 0.0 | 2.6 | 0.00 | 0.00 | 0.00 | 68 | 1014.1 |
| 20260507094333 | 42 | 180 | 0.9 | 2.6 | 0.00 | 0.00 | 0.00 | 68 | 1014.0 |
| 20260507093831 | 42 | 181 | 2.6 | 2.6 | 0.00 | 0.00 | 0.00 | 68 | 1014.3 |
| 20260507093329 | 41 | 181 | 0.9 | 1.7 | 0.00 | 0.00 | 0.00 | 70 | 1014.4 |
| 20260507092827 | 41 | 181 | 1.7 | 2.6 | 0.00 | 0.00 | 0.00 | 70 | 1014.4 |
| 20260507092323 | 41 | 182 | 0.9 | 2.6 | 0.00 | 0.00 | 0.00 | 72 | 1014.0 |
| 20260507091819 | 41 | 183 | 0.9 | 1.7 | 0.00 | 0.00 | 0.00 | 71 | 1014.1 |
| 20260507091316 | 41 | 184 | 0.9 | 2.6 | 0.00 | 0.00 | 0.00 | 70 | 1014.1 |
| 20260507090811 | 41 | 185 | 0.9 | 1.7 | 0.00 | 0.00 | 0.00 | 70 | 1014.1 |
| 20260507090308 | 41 | 185 | 0.9 | 2.6 | 0.00 | 0.00 | 0.00 | 70 | 1014.3 |
| 20260507085805 | 41 | 186 | 0.0 | 2.6 | 0.00 | 0.00 | 0.00 | 69 | 1014.5 |
| 20260507085305 | 41 | 187 | 0.9 | 3.5 | 0.00 | 0.00 | 0.00 | 70 | 1014.6 |
| 20260507084759 | 41 | 188 | 0.9 | 1.7 | 0.00 | 0.00 | 0.00 | 69 | 1014.4 |
| 20260507084255 | 41 | 189 | 0.9 | 2.6 | 0.00 | 0.00 | 0.00 | 69 | 1014.5 |
| 20260507083753 | 41 | 197 | 1.7 | 3.5 | 0.00 | 0.00 | 0.00 | 69 | 1014.5 |
| 20260507083249 | 41 | 202 | 0.9 | 3.5 | 0.00 | 0.00 | 0.00 | 69 | 1014.5 |
| 20260507082745 | 41 | 210 | 0.0 | 1.7 | 0.00 | 0.00 | 0.00 | 69 | 1014.6 |
| 20260507082241 | 41 | 212 | 0.9 | 2.6 | 0.00 | 0.00 | 0.00 | 68 | 1014.5 |
| 20260507081738 | 41 | 214 | 1.7 | 2.6 | 0.00 | 0.00 | 0.00 | 68 | 1014.6 |
| 20260507081234 | 41 | 216 | 1.7 | 2.6 | 0.00 | 0.00 | 0.00 | 68 | 1015.0 |
| 20260507080731 | 41 | 231 | 2.6 | 2.6 | 0.00 | 0.00 | 0.00 | 68 | 1014.7 |
| 20260507080227 | 42 | 263 | 1.7 | 2.6 | 0.00 | 0.00 | 0.00 | 67 | 1014.8 |
| 20260507075723 | 42 | 320 | 1.7 | 2.6 | 0.00 | 0.00 | 0.00 | 66 | 1014.8 |
| 20260507075219 | 42 | 326 | 1.7 | 2.6 | 0.00 | 0.00 | 0.00 | 66 | 1014.9 |
| 20260507074715 | 42 | 331 | 0.9 | 1.7 | 0.00 | 0.00 | 0.00 | 66 | 1015.0 |
| 20260507074214 | 42 | 335 | 1.7 | 2.6 | 0.00 | 0.00 | 0.00 | 66 | 1014.9 |
| 20260507073710 | 42 | 337 | 0.9 | 2.6 | 0.00 | 0.00 | 0.00 | 65 | 1015.0 |
| 20260507073206 | 42 | 338 | 2.6 | 2.6 | 0.00 | 0.00 | 0.00 | 65 | 1015.3 |
| 20260507072705 | 42 | 339 | 2.6 | 3.5 | 0.00 | 0.00 | 0.00 | 65 | 1015.0 |
| 20260507072202 | 42 | 342 | 1.7 | 2.6 | 0.00 | 0.00 | 0.00 | 65 | 1015.1 |
| 20260507071659 | 42 | 342 | 1.7 | 2.6 | 0.00 | 0.00 | 0.00 | 66 | 1015.2 |
| 20260507071155 | 42 | 342 | 0.9 | 1.7 | 0.00 | 0.00 | 0.00 | 66 | 1015.5 |
| 20260507070653 | 42 | 342 | 0.9 | 0.9 | 0.00 | 0.00 | 0.00 | 66 | 1015.5 |
| 20260507070149 | 42 | 342 | 0.0 | 1.7 | 0.00 | 0.00 | 0.00 | 67 | 1015.5 |
| 20260507065645 | 42 | 342 | 0.9 | 0.9 | 0.00 | 0.00 | 0.00 | 67 | 1015.5 |
| 20260507065142 | 42 | 342 | 0.0 | 0.9 | 0.00 | 0.00 | 0.00 | 66 | 1015.4 |
| 20260507064640 | 42 | 342 | 0.9 | 1.7 | 0.00 | 0.00 | 0.00 | 66 | 1015.6 |
| 20260507064139 | 43 | 342 | 0.9 | 1.7 | 0.00 | 0.00 | 0.00 | 65 | 1015.6 |
| 20260507063636 | 42 | 342 | 0.9 | 1.7 | 0.00 | 0.00 | 0.00 | 65 | 1015.5 |
| 20260507063132 | 42 | 342 | 0.9 | 0.9 | 0.00 | 0.00 | 0.00 | 67 | 1015.7 |
| 20260507062629 | 42 | 342 | 0.0 | 0.9 | 0.00 | 0.00 | 0.00 | 67 | 1015.8 |
| 20260507062127 | 42 | 342 | 0.0 | 0.9 | 0.00 | 0.00 | 0.00 | 67 | 1015.6 |
| 20260507061624 | 42 | 342 | 0.0 | 0.9 | 0.00 | 0.00 | 0.00 | 67 | 1015.8 |
| 20260507061123 | 42 | 343 | 0.9 | 0.9 | 0.00 | 0.00 | 0.00 | 66 | 1015.9 |
| 20260507060620 | 42 | 342 | 0.9 | 0.9 | 0.00 | 0.00 | 0.00 | 67 | 1015.9 |
| 20260507060117 | 43 | 343 | 0.9 | 0.9 | 0.00 | 0.00 | 0.00 | 67 | 1016.0 |
| 20260507055612 | 42 | 342 | 0.0 | 0.9 | 0.00 | 0.00 | 0.00 | 67 | 1016.1 |
| 20260507055108 | 43 | 342 | 0.9 | 0.9 | 0.00 | 0.00 | 0.00 | 67 | 1015.9 |
| 20260507054604 | 42 | 342 | 0.0 | 0.9 | 0.00 | 0.00 | 0.00 | 66 | 1016.0 |
| 20260507054101 | 42 | 342 | 0.0 | 0.0 | 0.00 | 0.00 | 0.00 | 66 | 1016.2 |
| 20260507053559 | 43 | 342 | 0.0 | 0.0 | 0.00 | 0.00 | 0.00 | 66 | 1016.1 |
| 20260507053058 | 43 | 342 | 0.0 | 0.9 | 0.00 | 0.00 | 0.00 | 65 | 1016.1 |
| 20260507052556 | 44 | 342 | 0.0 | 0.9 | 0.00 | 0.00 | 0.00 | 63 | 1016.0 |
| 20260507052052 | 43 | 342 | 0.0 | 0.9 | 0.00 | 0.00 | 0.00 | 64 | 1016.1 |
| 20260507051549 | 44 | 342 | 0.0 | 0.0 | 0.00 | 0.00 | 0.00 | 64 | 1015.9 |
| 20260507051046 | 44 | 342 | 0.0 | 0.9 | 0.00 | 0.00 | 0.00 | 60 | 1016.2 |
| 20260507050543 | 44 | 342 | 0.0 | 0.0 | 0.00 | 0.00 | 0.00 | 61 | 1016.1 |
| 20260507050039 | 45 | 342 | 0.0 | 0.0 | 0.00 | 0.00 | 0.00 | 61 | 1016.1 |
| 20260507045536 | 46 | 342 | 0.0 | 0.9 | 0.00 | 0.00 | 0.00 | 58 | 1016.2 |
| 20260507045033 | 46 | 342 | 0.0 | 0.9 | 0.00 | 0.00 | 0.00 | 57 | 1016.0 |
| 20260507044530 | 46 | 342 | 0.9 | 0.9 | 0.00 | 0.00 | 0.00 | 58 | 1016.0 |
| 20260507044027 | 46 | 342 | 0.9 | 0.9 | 0.00 | 0.00 | 0.00 | 58 | 1016.1 |
| 20260507043522 | 45 | 342 | 0.0 | 0.9 | 0.00 | 0.00 | 0.00 | 58 | 1016.2 |
| 20260507043020 | 45 | 342 | 0.0 | 0.9 | 0.00 | 0.00 | 0.00 | 59 | 1016.3 |
| 20260507042516 | 44 | 342 | 0.0 | 0.9 | 0.00 | 0.00 | 0.00 | 61 | 1016.4 |
| 20260507042011 | 44 | 342 | 0.0 | 0.0 | 0.00 | 0.00 | 0.00 | 63 | 1016.3 |
| 20260507041509 | 45 | 342 | 0.0 | 0.0 | 0.00 | 0.00 | 0.00 | 63 | 1016.3 |
| 20260507041006 | 45 | 342 | 0.0 | 0.9 | 0.00 | 0.00 | 0.00 | 64 | 1016.6 |
| 20260507040501 | 45 | 342 | 0.9 | 1.7 | 0.00 | 0.00 | 0.00 | 63 | 1016.2 |
| 20260507035957 | 45 | 342 | 0.9 | 0.9 | 0.00 | 0.00 | 0.00 | 62 | 1016.0 |
| 20260507035454 | 44 | 342 | 0.0 | 0.9 | 0.00 | 0.00 | 0.00 | 64 | 1016.4 |
| 20260507034950 | 43 | 342 | 0.0 | 0.9 | 0.00 | 0.00 | 0.00 | 67 | 1016.2 |
| 20260507034447 | 44 | 342 | 0.0 | 0.9 | 0.00 | 0.00 | 0.00 | 68 | 1016.3 |
| 20260507033946 | 44 | 342 | 0.0 | 0.0 | 0.00 | 0.00 | 0.00 | 67 | 1016.3 |
| 20260507033443 | 44 | 342 | 0.0 | 0.0 | 0.00 | 0.00 | 0.00 | 64 | 1016.4 |
| 20260507032940 | 44 | 342 | 0.0 | 0.0 | 0.00 | 0.00 | 0.00 | 58 | 1016.4 |
| 20260507032437 | 44 | 342 | 0.0 | 0.0 | 0.00 | 0.00 | 0.00 | 61 | 1016.3 |
| 20260507031933 | 45 | 342 | 0.0 | 0.0 | 0.00 | 0.00 | 0.00 | 56 | 1016.4 |
| 20260507031430 | 45 | 342 | 0.0 | 0.0 | 0.00 | 0.00 | 0.00 | 54 | 1016.2 |
| 20260507030926 | 46 | 342 | 0.0 | 0.0 | 0.00 | 0.00 | 0.00 | 53 | 1016.4 |
| 20260507030424 | 46 | 342 | 0.0 | 0.0 | 0.00 | 0.00 | 0.00 | 52 | 1016.3 |
| 20260507025921 | 46 | 342 | 0.0 | 0.0 | 0.00 | 0.00 | 0.00 | 54 | 1016.2 |
| 20260507025418 | 46 | 342 | 0.0 | 0.0 | 0.00 | 0.00 | 0.00 | 51 | 1016.4 |
| 20260507024916 | 46 | 342 | 0.0 | 0.0 | 0.00 | 0.00 | 0.00 | 50 | 1016.1 |
| 20260507024413 | 46 | 342 | 0.0 | 0.0 | 0.00 | 0.00 | 0.00 | 51 | 1016.2 |
| 20260507023908 | 46 | 342 | 0.0 | 0.0 | 0.00 | 0.00 | 0.00 | 50 | 1016.1 |
| 20260507023406 | 46 | 342 | 0.0 | 0.0 | 0.00 | 0.00 | 0.00 | 49 | 1016.1 |
| 20260507022903 | 46 | 342 | 0.0 | 0.0 | 0.00 | 0.00 | 0.00 | 49 | 1016.3 |
| 20260507022359 | 46 | 342 | 0.0 | 0.0 | 0.00 | 0.00 | 0.00 | 50 | 1016.1 |
| 20260507021855 | 46 | 342 | 0.0 | 0.0 | 0.00 | 0.00 | 0.00 | 49 | 1016.0 |
| 20260507021350 | 47 | 342 | 0.0 | 0.0 | 0.00 | 0.00 | 0.00 | 47 | 1015.9 |
| 20260507020849 | 48 | 342 | 0.0 | 0.0 | 0.00 | 0.00 | 0.00 | 46 | 1016.1 |
| 20260507020345 | 48 | 342 | 0.0 | 0.0 | 0.00 | 0.00 | 0.00 | 46 | 1015.9 |
| 20260507015842 | 48 | 342 | 0.0 | 0.9 | 0.00 | 0.00 | 0.00 | 47 | 1015.8 |
| 20260507015340 | 48 | 342 | 0.0 | 0.0 | 0.00 | 0.00 | 0.00 | 45 | 1016.1 |
| 20260507014837 | 49 | 342 | 0.0 | 0.0 | 0.00 | 0.00 | 0.00 | 45 | 1015.9 |
| 20260507014333 | 50 | 342 | 0.0 | 0.0 | 0.00 | 0.00 | 0.00 | 42 | 1015.7 |
| 20260507013830 | 49 | 342 | 0.0 | 0.0 | 0.00 | 0.00 | 0.00 | 45 | 1016.0 |
| 20260507013327 | 51 | 342 | 0.0 | 0.0 | 0.00 | 0.00 | 0.00 | 44 | 1015.7 |
| 20260507012825 | 51 | 342 | 0.0 | 0.0 | 0.00 | 0.00 | 0.00 | 42 | 1015.7 |
| 20260507012320 | 51 | 342 | 0.0 | 0.0 | 0.00 | 0.00 | 0.00 | 42 | 1015.7 |
| 20260507011812 | 52 | 342 | 0.0 | 0.0 | 0.00 | 0.00 | 0.00 | 40 | 1015.6 |
| 20260507011309 | 52 | 342 | 0.0 | 0.9 | 0.00 | 0.00 | 0.00 | 39 | 1015.7 |
| 20260507010808 | 52 | 342 | 0.0 | 0.0 | 0.00 | 0.00 | 0.00 | 40 | 1015.7 |
| 20260507010304 | 53 | 342 | 0.0 | 0.9 | 0.00 | 0.00 | 0.00 | 40 | 1015.7 |
| 20260507005802 | 54 | 341 | 0.9 | 1.7 | 0.00 | 0.00 | 0.00 | 38 | 1015.5 |
| 20260507005258 | 54 | 341 | 0.9 | 1.7 | 0.00 | 0.00 | 0.00 | 38 | 1015.7 |
| 20260507004755 | 54 | 341 | 0.0 | 1.7 | 0.00 | 0.00 | 0.00 | 38 | 1015.6 |
| 20260507004252 | 54 | 341 | 1.7 | 1.7 | 0.00 | 0.00 | 0.00 | 37 | 1015.7 |
| 20260507003748 | 54 | 340 | 1.7 | 2.6 | 0.00 | 0.00 | 0.00 | 36 | 1015.6 |
| 20260507003244 | 55 | 339 | 1.7 | 3.5 | 0.00 | 0.00 | 0.00 | 35 | 1015.8 |
| 20260507002740 | 55 | 337 | 1.7 | 3.5 | 0.00 | 0.00 | 0.00 | 37 | 1015.7 |
| 20260507002236 | 55 | 334 | 1.7 | 1.7 | 0.00 | 0.00 | 0.00 | 36 | 1015.7 |
| 20260507001733 | 56 | 332 | 1.7 | 3.5 | 0.00 | 0.00 | 0.00 | 35 | 1015.6 |
| 20260507001231 | 57 | 320 | 0.9 | 1.7 | 0.00 | 0.00 | 0.00 | 35 | 1015.8 |
| 20260507000727 | 56 | 316 | 0.9 | 2.6 | 0.00 | 0.00 | 0.00 | 36 | 1015.9 |
| 20260507000222 | 56 | 315 | 0.9 | 5.2 | 0.00 | 0.00 | 0.00 | 35 | 1015.8 |
| 20260506235720 | 56 | 314 | 1.7 | 3.5 | 0.00 | 0.00 | 0.00 | 35 | 1015.9 |
| 20260506235215 | 57 | 357 | 4.3 | 5.2 | 0.00 | 0.00 | 0.00 | 34 | 1015.9 |
| 20260506234712 | 55 | 338 | 1.7 | 5.2 | 0.00 | 0.00 | 0.00 | 35 | 1015.9 |
| 20260506234210 | 56 | 355 | 4.3 | 7.0 | 0.00 | 0.00 | 0.00 | 35 | 1016.0 |
| 20260506233707 | 57 | 318 | 3.5 | 7.0 | 0.00 | 0.00 | 0.00 | 34 | 1015.8 |
| 20260506233203 | 56 | 318 | 1.7 | 6.1 | 0.00 | 0.00 | 0.00 | 34 | 1015.9 |
| 20260506232700 | 56 | 355 | 5.2 | 11.3 | 0.00 | 0.00 | 0.00 | 33 | 1016.1 |
| 20260506232154 | 57 | 319 | 1.7 | 6.1 | 0.00 | 0.00 | 0.00 | 32 | 1015.8 |
| 20260506231652 | 57 | 351 | 1.7 | 6.1 | 0.00 | 0.00 | 0.00 | 33 | 1016.0 |
| 20260506231151 | 57 | 321 | 6.1 | 8.7 | 0.00 | 0.00 | 0.00 | 33 | 1016.1 |
| 20260506230647 | 58 | 320 | 5.2 | 9.6 | 0.00 | 0.00 | 0.00 | 32 | 1016.1 |
| 20260506230144 | 58 | 334 | 3.5 | 7.0 | 0.00 | 0.00 | 0.00 | 33 | 1016.1 |
| 20260506225640 | 58 | 330 | 6.1 | 8.7 | 0.00 | 0.00 | 0.00 | 32 | 1016.0 |
| 20260506225137 | 58 | 337 | 5.2 | 7.8 | 0.00 | 0.00 | 0.00 | 32 | 1016.3 |
| 20260506224634 | 58 | 351 | 8.7 | 15.6 | 0.00 | 0.00 | 0.00 | 35 | 1015.9 |
| 20260506224130 | 57 | 350 | 6.1 | 7.8 | 0.00 | 0.00 | 0.00 | 32 | 1016.2 |
| 20260506223626 | 57 | 2 | 6.1 | 11.3 | 0.00 | 0.00 | 0.00 | 33 | 1016.2 |
| 20260506223122 | 56 | 323 | 5.2 | 11.3 | 0.00 | 0.00 | 0.00 | 34 | 1016.3 |
| 20260506222620 | 57 | 272 | 4.3 | 12.2 | 0.00 | 0.00 | 0.00 | 33 | 1016.1 |
| 20260506222116 | 56 | 317 | 10.4 | 14.8 | 0.00 | 0.00 | 0.00 | 34 | 1016.1 |
| 20260506221614 | 56 | 11 | 3.5 | 8.7 | 0.00 | 0.00 | 0.00 | 35 | 1016.2 |
| 20260506221112 | 56 | 286 | 12.2 | 15.6 | 0.00 | 0.00 | 0.00 | 34 | 1016.3 |
| 20260506220608 | 57 | 316 | 3.5 | 6.1 | 0.00 | 0.00 | 0.00 | 35 | 1016.3 |
| 20260506215600 | 57 | 3 | 5.2 | 7.8 | 0.00 | 0.00 | 0.00 | 33 | 1016.3 |
| 20260506215055 | 57 | 339 | 3.5 | 6.1 | 0.00 | 0.00 | 0.00 | 35 | 1016.3 |
| 20260506214553 | 58 | 289 | 5.2 | 6.1 | 0.00 | 0.00 | 0.00 | 32 | 1016.0 |
| 20260506214050 | 58 | 303 | 4.3 | 11.3 | 0.00 | 0.00 | 0.00 | 36 | 1016.2 |
| 20260506213548 | 58 | 288 | 8.7 | 9.6 | 0.00 | 0.00 | 0.00 | 38 | 1016.3 |
| 20260506213045 | 57 | 349 | 3.5 | 12.2 | 0.00 | 0.00 | 0.00 | 33 | 1016.3 |
| 20260506212542 | 57 | 303 | 7.8 | 11.3 | 0.00 | 0.00 | 0.00 | 33 | 1016.6 |
| 20260506212036 | 56 | 295 | 7.0 | 12.2 | 0.00 | 0.00 | 0.00 | 38 | 1016.5 |
| 20260506211533 | 57 | 305 | 3.5 | 9.6 | 0.00 | 0.00 | 0.00 | 32 | 1016.7 |
| 20260506211030 | 58 | 305 | 2.6 | 11.3 | 0.00 | 0.00 | 0.00 | 36 | 1016.5 |
| 20260506210526 | 58 | 301 | 7.0 | 12.2 | 0.00 | 0.00 | 0.00 | 37 | 1016.5 |
| 20260506210023 | 58 | 304 | 1.7 | 7.8 | 0.00 | 0.00 | 0.00 | 32 | 1016.7 |
| 20260506205520 | 57 | 345 | 3.5 | 7.0 | 0.00 | 0.00 | 0.00 | 35 | 1016.8 |
| 20260506205015 | 57 | 282 | 5.2 | 9.6 | 0.00 | 0.00 | 0.00 | 33 | 1016.7 |
| 20260506204514 | 57 | 309 | 3.5 | 7.0 | 0.00 | 0.00 | 0.00 | 34 | 1016.8 |
| 20260506204010 | 55 | 302 | 4.3 | 7.0 | 0.00 | 0.00 | 0.00 | 34 | 1016.8 |
| 20260506203508 | 56 | 342 | 8.7 | 9.6 | 0.00 | 0.00 | 0.00 | 34 | 1016.8 |
| 20260506203005 | 56 | 325 | 5.2 | 13.0 | 0.00 | 0.00 | 0.00 | 36 | 1017.1 |
| 20260506202502 | 56 | 340 | 7.0 | 9.6 | 0.00 | 0.00 | 0.00 | 41 | 1017.1 |
| 20260506201958 | 57 | 336 | 4.3 | 7.8 | 0.00 | 0.00 | 0.00 | 34 | 1017.1 |